createdAt,value
2018-07-30T00:01:53.493Z,23.12
2018-07-30T00:04:24.485Z,23.07
2018-07-30T00:06:55.504Z,23.00
2018-07-30T00:09:26.489Z,23.09
2018-07-30T00:11:57.514Z,23.23
2018-07-30T00:14:28.476Z,23.13
2018-07-30T00:16:59.488Z,23.00
2018-07-30T00:19:30.481Z,23.02
2018-07-30T00:22:01.489Z,22.93
2018-07-30T00:24:32.484Z,23.01
2018-07-30T00:27:03.474Z,22.93
2018-07-30T00:29:34.481Z,22.93
2018-07-30T00:32:05.494Z,22.95
2018-07-30T00:34:36.469Z,22.84
2018-07-30T00:37:07.474Z,22.89
2018-07-30T00:39:38.477Z,22.73
2018-07-30T00:42:09.478Z,22.69
2018-07-30T00:44:40.550Z,22.66
2018-07-30T00:47:11.462Z,22.70
2018-07-30T00:52:00.281Z,22.62
2018-07-30T00:54:31.358Z,22.59
2018-07-30T00:57:02.345Z,22.75
2018-07-30T00:59:33.657Z,22.43
2018-07-30T01:02:04.537Z,22.52
2018-07-30T01:04:35.461Z,22.61
2018-07-30T01:07:06.493Z,22.77
2018-07-30T01:09:37.500Z,22.56
2018-07-30T01:12:08.544Z,22.54
2018-07-30T01:14:39.481Z,22.75
2018-07-30T01:17:10.510Z,22.52
2018-07-30T01:19:41.484Z,22.69
2018-07-30T01:22:12.513Z,22.60
2018-07-30T01:24:43.476Z,22.62
2018-07-30T01:27:14.489Z,22.69
2018-07-30T01:29:45.505Z,22.50
2018-07-30T01:32:16.482Z,22.56
2018-07-30T01:34:47.520Z,22.53
2018-07-30T01:37:18.567Z,22.69
2018-07-30T01:39:49.495Z,22.73
2018-07-30T01:42:20.709Z,22.67
2018-07-30T01:44:51.593Z,22.55
2018-07-30T01:47:22.501Z,22.44
2018-07-30T01:49:53.482Z,22.32
2018-07-30T01:52:24.480Z,22.38
2018-07-30T01:54:55.580Z,22.45
2018-07-30T01:57:26.483Z,22.41
2018-07-30T02:00:33.480Z,22.38
2018-07-30T02:03:04.537Z,22.44
2018-07-30T02:05:35.467Z,22.47
2018-07-30T02:08:06.610Z,22.50
2018-07-30T02:10:37.509Z,22.43
2018-07-30T02:13:08.561Z,22.42
2018-07-30T02:15:39.498Z,22.45
2018-07-30T02:18:10.517Z,22.41
2018-07-30T02:20:41.561Z,22.55
2018-07-30T02:23:12.549Z,22.48
2018-07-30T02:25:43.468Z,22.55
2018-07-30T02:28:14.437Z,22.36
2018-07-30T02:30:45.472Z,22.35
2018-07-30T02:33:16.597Z,22.33
2018-07-30T02:35:47.474Z,22.20
2018-07-30T02:38:18.507Z,22.18
2018-07-30T02:40:49.452Z,22.30
2018-07-30T02:43:20.527Z,22.24
2018-07-30T02:45:51.644Z,22.10
2018-07-30T02:48:22.502Z,22.18
2018-07-30T02:50:53.480Z,22.29
2018-07-30T02:53:24.437Z,22.20
2018-07-30T02:55:55.405Z,21.99
2018-07-30T02:58:26.437Z,21.84
2018-07-30T03:00:57.464Z,21.84
2018-07-30T03:03:28.442Z,21.94
2018-07-30T03:05:59.445Z,22.03
2018-07-30T03:08:30.509Z,21.89
2018-07-30T03:11:01.481Z,21.83
2018-07-30T03:13:32.490Z,21.79
2018-07-30T03:16:03.511Z,21.72
2018-07-30T03:18:34.460Z,21.54
2018-07-30T03:21:05.450Z,21.31
2018-07-30T03:23:36.549Z,21.20
2018-07-30T03:26:07.480Z,21.07
2018-07-30T03:28:38.575Z,21.20
2018-07-30T03:31:09.562Z,21.02
2018-07-30T03:33:40.543Z,20.99
2018-07-30T03:36:11.500Z,21.01
2018-07-30T03:38:42.515Z,20.81
2018-07-30T03:41:13.517Z,20.81
2018-07-30T03:43:44.506Z,20.74
2018-07-30T03:46:15.484Z,20.81
2018-07-30T03:48:46.496Z,20.93
2018-07-30T03:51:17.519Z,20.98
2018-07-30T03:53:48.460Z,20.75
2018-07-30T03:56:19.518Z,20.59
2018-07-30T03:58:50.485Z,20.39
2018-07-30T04:01:21.486Z,20.21
2018-07-30T04:03:52.516Z,20.11
2018-07-30T04:06:23.505Z,20.23
2018-07-30T04:08:54.597Z,20.33
2018-07-30T04:11:25.690Z,20.34
2018-07-30T04:13:57.017Z,20.37
2018-07-30T04:16:28.403Z,20.37
2018-07-30T04:18:59.481Z,20.54
2018-07-30T04:21:30.475Z,20.43
2018-07-30T04:24:01.468Z,20.35
2018-07-30T04:26:32.499Z,20.26
2018-07-30T04:29:03.457Z,20.53
2018-07-30T04:31:34.425Z,20.54
2018-07-30T04:34:05.749Z,20.49
2018-07-30T04:36:36.903Z,20.76
2018-07-30T04:39:13.596Z,20.77
2018-07-30T04:41:45.334Z,20.74
2018-07-30T04:44:16.422Z,20.82
2018-07-30T04:46:47.503Z,20.80
2018-07-30T04:49:18.600Z,20.81
2018-07-30T04:51:49.533Z,20.71
2018-07-30T04:54:20.485Z,20.63
2018-07-30T04:56:51.496Z,20.66
2018-07-30T04:59:22.480Z,20.70
2018-07-30T05:01:53.459Z,20.87
2018-07-30T05:04:24.462Z,20.90
2018-07-30T05:06:55.448Z,20.87
2018-07-30T05:09:26.504Z,20.59
2018-07-30T05:11:57.499Z,20.64
2018-07-30T05:14:28.423Z,20.78
2018-07-30T05:17:00.034Z,20.90
2018-07-30T05:19:31.422Z,20.94
2018-07-30T05:22:02.478Z,20.73
2018-07-30T05:24:33.828Z,20.61
2018-07-30T05:27:04.583Z,20.95
2018-07-30T05:29:35.549Z,21.14
2018-07-30T05:32:06.495Z,21.23
2018-07-30T05:34:37.505Z,21.54
2018-07-30T05:37:08.696Z,21.69
2018-07-30T05:39:39.569Z,21.62
2018-07-30T05:42:10.505Z,21.62
2018-07-30T05:44:41.472Z,21.82
2018-07-30T05:47:12.449Z,21.71
2018-07-30T05:49:43.478Z,21.98
2018-07-30T05:52:14.508Z,22.10
2018-07-30T05:54:45.513Z,22.26
2018-07-30T05:57:16.456Z,22.44
2018-07-30T05:59:47.463Z,22.44
2018-07-30T06:02:18.461Z,22.57
2018-07-30T06:04:49.463Z,22.72
2018-07-30T06:07:24.184Z,22.64
2018-07-30T06:09:55.382Z,22.76
2018-07-30T06:12:26.526Z,22.86
2018-07-30T06:14:57.494Z,22.95
2018-07-30T06:17:28.461Z,23.28
2018-07-30T06:19:59.615Z,23.27
2018-07-30T06:22:30.529Z,23.35
2018-07-30T06:25:01.493Z,23.53
2018-07-30T06:27:32.523Z,23.34
2018-07-30T06:30:05.561Z,23.31
2018-07-30T06:32:36.506Z,23.74
2018-07-30T06:35:08.299Z,23.87
2018-07-30T06:37:39.578Z,23.98
2018-07-30T06:40:10.477Z,23.71
2018-07-30T06:42:41.468Z,23.91
2018-07-30T06:45:12.473Z,24.19
2018-07-30T06:47:43.469Z,23.99
2018-07-30T06:50:14.481Z,24.32
2018-07-30T06:52:45.455Z,24.38
2018-07-30T06:55:16.479Z,24.14
2018-07-30T06:57:47.505Z,24.45
2018-07-30T07:00:18.457Z,24.29
2018-07-30T07:02:50.001Z,24.45
2018-07-30T07:05:21.204Z,24.61
2018-07-30T07:07:52.369Z,24.54
2018-07-30T07:10:23.378Z,24.75
2018-07-30T07:12:54.485Z,24.88
2018-07-30T07:15:25.488Z,24.91
2018-07-30T07:17:56.571Z,25.00
2018-07-30T07:20:27.572Z,25.18
2018-07-30T07:22:58.506Z,25.42
2018-07-30T07:25:29.461Z,25.47
2018-07-30T07:28:00.477Z,25.68
2018-07-30T07:30:31.522Z,25.73
2018-07-30T07:33:02.489Z,25.78
2018-07-30T07:35:33.461Z,25.84
2018-07-30T07:38:04.509Z,25.91
2018-07-30T07:40:35.455Z,26.00
2018-07-30T07:43:06.529Z,26.08
2018-07-30T07:45:37.442Z,26.13
2018-07-30T07:48:08.515Z,26.42
2018-07-30T07:50:39.675Z,26.15
2018-07-30T07:53:10.499Z,26.60
2018-07-30T07:55:41.481Z,26.51
2018-07-30T07:58:12.490Z,26.74
2018-07-30T08:00:43.481Z,26.85
2018-07-30T08:03:14.501Z,27.06
2018-07-30T08:05:45.518Z,26.89
2018-07-30T08:08:16.489Z,27.09
2018-07-30T08:10:47.588Z,27.34
2018-07-30T08:13:18.526Z,27.59
2018-07-30T08:15:49.477Z,27.85
2018-07-30T08:18:20.489Z,27.63
2018-07-30T08:20:51.513Z,27.84
2018-07-30T08:23:22.523Z,27.96
2018-07-30T08:25:53.583Z,28.16
2018-07-30T08:28:24.524Z,28.39
2018-07-30T08:30:55.714Z,28.73
2018-07-30T08:33:26.561Z,28.94
2018-07-30T08:35:57.575Z,29.03
2018-07-30T08:38:28.496Z,29.61
2018-07-30T08:40:59.440Z,29.38
2018-07-30T08:43:30.485Z,30.55
2018-07-30T08:46:01.498Z,30.55
2018-07-30T08:48:32.545Z,30.75
2018-07-30T08:51:03.544Z,31.45
2018-07-30T08:53:34.497Z,31.55
2018-07-30T08:56:05.510Z,31.61
2018-07-30T08:58:36.575Z,31.79
2018-07-30T09:01:07.596Z,32.17
2018-07-30T09:03:38.610Z,32.59
2018-07-30T09:06:09.551Z,32.22
2018-07-30T09:08:40.498Z,33.23
2018-07-30T09:11:11.506Z,33.62
2018-07-30T09:13:42.554Z,33.58
2018-07-30T09:16:13.527Z,33.76
2018-07-30T09:18:44.493Z,34.26
2018-07-30T09:21:15.465Z,34.03
2018-07-30T09:23:46.496Z,33.73
2018-07-30T09:26:17.509Z,34.49
2018-07-30T09:28:48.472Z,34.52
2018-07-30T09:31:19.500Z,34.32
2018-07-30T09:33:50.483Z,34.13
2018-07-30T09:36:26.805Z,35.16
2018-07-30T09:38:57.441Z,34.09
2018-07-30T09:41:28.481Z,35.45
2018-07-30T09:43:59.492Z,35.57
2018-07-30T09:46:30.461Z,35.98
2018-07-30T09:49:01.501Z,35.05
2018-07-30T09:51:32.591Z,35.70
2018-07-30T09:54:03.525Z,35.62
2018-07-30T09:56:34.678Z,35.50
2018-07-30T09:59:05.605Z,36.26
2018-07-30T10:01:36.481Z,35.65
2018-07-30T10:04:07.462Z,34.65
2018-07-30T10:06:38.464Z,34.98
2018-07-30T10:09:12.457Z,34.89
2018-07-30T10:11:43.470Z,36.13
2018-07-30T10:14:14.701Z,35.71
2018-07-30T10:16:45.535Z,36.07
2018-07-30T10:19:16.502Z,35.91
2018-07-30T10:21:49.451Z,36.28
2018-07-30T10:24:20.467Z,36.29
2018-07-30T10:26:51.492Z,35.99
2018-07-30T10:29:22.517Z,35.65
2018-07-30T10:31:53.504Z,36.53
2018-07-30T10:34:24.525Z,36.75
2018-07-30T10:36:55.502Z,36.75
2018-07-30T10:39:26.464Z,36.27
2018-07-30T10:41:57.538Z,37.42
2018-07-30T10:44:28.493Z,36.55
2018-07-30T10:46:59.469Z,37.31
2018-07-30T10:49:30.511Z,37.08
2018-07-30T10:52:01.492Z,37.77
2018-07-30T10:54:32.489Z,37.05
2018-07-30T10:57:03.505Z,37.22
2018-07-30T10:59:34.815Z,36.90
2018-07-30T11:02:05.279Z,36.84
2018-07-30T11:04:39.781Z,36.73
2018-07-30T11:07:10.280Z,37.33
2018-07-30T11:09:41.422Z,37.25
2018-07-30T11:12:12.493Z,37.57
2018-07-30T11:14:43.543Z,37.19
2018-07-30T11:17:14.530Z,36.71
2018-07-30T11:19:45.512Z,37.09
2018-07-30T11:22:16.468Z,37.06
2018-07-30T11:24:47.485Z,36.94
2018-07-30T11:27:18.496Z,37.27
2018-07-30T11:29:49.491Z,37.15
2018-07-30T11:32:22.547Z,37.04
2018-07-30T11:34:55.520Z,37.64
2018-07-30T11:37:26.525Z,36.90
2018-07-30T11:39:57.712Z,35.54
2018-07-30T11:42:28.541Z,36.54
2018-07-30T11:44:59.508Z,37.33
2018-07-30T11:47:30.524Z,38.11
2018-07-30T11:50:02.047Z,38.22
2018-07-30T11:52:33.297Z,37.97
2018-07-30T11:55:04.391Z,38.30
2018-07-30T11:57:35.476Z,39.22
2018-07-30T12:00:06.521Z,38.63
2018-07-30T12:02:37.525Z,38.40
2018-07-30T12:05:08.491Z,38.64
2018-07-30T12:07:39.468Z,38.40
2018-07-30T12:10:10.522Z,37.40
2018-07-30T12:12:41.461Z,38.22
2018-07-30T12:15:12.295Z,38.79
2018-07-30T12:17:43.350Z,38.47
2018-07-30T12:20:14.417Z,37.18
2018-07-30T12:22:45.481Z,38.15
2018-07-30T12:25:16.508Z,37.80
2018-07-30T12:27:47.469Z,36.13
2018-07-30T12:30:18.558Z,37.00
2018-07-30T12:32:49.518Z,38.80
2018-07-30T12:35:20.529Z,39.11
2018-07-30T12:37:51.601Z,39.27
2018-07-30T12:40:22.489Z,39.02
2018-07-30T12:42:53.457Z,37.27
2018-07-30T12:45:29.625Z,36.77
2018-07-30T12:48:00.549Z,37.84
2018-07-30T12:50:31.542Z,37.05
2018-07-30T12:53:02.432Z,37.91
2018-07-30T12:55:33.464Z,38.20
2018-07-30T12:58:04.618Z,38.44
2018-07-30T13:00:35.517Z,38.66
2018-07-30T13:03:06.527Z,37.94
2018-07-30T13:05:37.505Z,39.07
2018-07-30T13:08:08.516Z,38.44
2018-07-30T13:10:39.512Z,37.57
2018-07-30T13:13:10.534Z,36.28
2018-07-30T13:15:41.473Z,36.67
2018-07-30T13:18:12.447Z,37.12
2018-07-30T13:20:43.578Z,38.65
2018-07-30T13:23:14.499Z,38.34
2018-07-30T13:25:45.475Z,38.57
2018-07-30T13:28:16.484Z,37.88
2018-07-30T13:30:47.527Z,39.04
2018-07-30T13:33:18.503Z,39.06
2018-07-30T13:35:49.605Z,39.18
2018-07-30T13:38:20.501Z,39.32
2018-07-30T13:40:51.702Z,39.48
2018-07-30T13:43:22.565Z,39.80
2018-07-30T13:45:53.505Z,40.09
2018-07-30T13:48:24.487Z,39.46
2018-07-30T13:50:55.493Z,38.50
2018-07-30T13:53:26.579Z,37.58
2018-07-30T13:55:57.557Z,37.37
2018-07-30T13:58:28.534Z,37.02
2018-07-30T14:01:00.031Z,38.07
2018-07-30T14:03:31.367Z,37.25
2018-07-30T14:06:02.406Z,37.90
2018-07-30T14:08:33.466Z,37.42
2018-07-30T14:11:04.569Z,36.87
2018-07-30T14:13:35.531Z,36.57
2018-07-30T14:16:06.520Z,36.71
2018-07-30T14:18:37.611Z,36.27
2018-07-30T14:21:08.533Z,35.97
2018-07-30T14:23:39.594Z,36.38
2018-07-30T14:26:10.595Z,35.92
2018-07-30T14:28:41.635Z,36.67
2018-07-30T14:31:12.617Z,36.73
2018-07-30T14:33:43.600Z,37.43
2018-07-30T14:36:14.733Z,36.77
2018-07-30T14:38:46.514Z,37.61
2018-07-30T14:41:17.549Z,37.49
2018-07-30T14:43:48.505Z,37.82
2018-07-30T14:46:19.550Z,38.35
2018-07-30T14:48:50.503Z,36.98
2018-07-30T14:51:21.551Z,36.88
2018-07-30T14:53:52.539Z,36.67
2018-07-30T14:56:24.029Z,36.10
2018-07-30T14:58:55.403Z,36.24
2018-07-30T15:01:26.526Z,36.28
2018-07-30T15:03:57.647Z,36.20
2018-07-30T15:06:28.609Z,36.35
2018-07-30T15:09:00.489Z,36.09
2018-07-30T15:11:31.574Z,36.38
2018-07-30T15:14:02.600Z,36.51
2018-07-30T15:16:34.731Z,36.04
2018-07-30T15:19:06.254Z,36.71
2018-07-30T15:21:37.434Z,36.61
2018-07-30T15:24:08.557Z,36.82
2018-07-30T15:26:39.549Z,36.89
2018-07-30T15:29:10.558Z,36.77
2018-07-30T15:31:41.509Z,36.90
2018-07-30T15:34:12.524Z,36.78
2018-07-30T15:36:43.582Z,36.76
2018-07-30T15:39:14.544Z,36.68
2018-07-30T15:41:45.530Z,36.49
2018-07-30T15:44:16.591Z,36.41
2018-07-30T15:46:47.563Z,35.93
2018-07-30T15:52:09.579Z,35.48
2018-07-30T15:54:40.541Z,36.20
2018-07-30T15:57:11.554Z,36.02
2018-07-30T15:59:42.522Z,36.24
2018-07-30T16:02:13.501Z,36.06
2018-07-30T16:04:44.497Z,35.65
2018-07-30T16:07:15.603Z,35.96
2018-07-30T16:09:46.500Z,35.56
2018-07-30T16:12:17.483Z,35.60
2018-07-30T16:14:48.483Z,35.63
2018-07-30T16:17:39.564Z,35.34
2018-07-30T16:20:11.218Z,35.03
2018-07-30T16:22:42.400Z,35.19
2018-07-30T16:25:13.445Z,35.16
2018-07-30T16:27:44.481Z,35.06
2018-07-30T16:30:15.509Z,35.20
2018-07-30T16:32:46.509Z,35.17
2018-07-30T16:35:17.533Z,35.00
2018-07-30T16:37:48.473Z,35.10
2018-07-30T16:40:19.565Z,35.03
2018-07-30T16:42:50.525Z,35.07
2018-07-30T16:45:21.465Z,35.06
2018-07-30T16:47:52.509Z,35.08
2018-07-30T16:50:23.505Z,34.89
2018-07-30T16:52:54.517Z,35.06
2018-07-30T16:55:25.484Z,35.07
2018-07-30T16:57:56.487Z,34.90
2018-07-30T17:00:27.450Z,34.83
2018-07-30T17:02:58.662Z,34.57
2018-07-30T17:05:29.546Z,34.52
2018-07-30T17:08:00.489Z,34.69
2018-07-30T17:10:31.500Z,34.63
2018-07-30T17:13:02.495Z,34.41
2018-07-30T17:15:33.504Z,34.43
2018-07-30T17:18:04.586Z,34.32
2018-07-30T17:20:35.556Z,34.32
2018-07-30T17:23:06.629Z,34.21
2018-07-30T17:25:37.488Z,34.38
2018-07-30T17:28:08.500Z,34.25
2018-07-30T17:30:39.460Z,34.10
2018-07-30T17:33:10.509Z,34.13
2018-07-30T17:35:41.469Z,34.19
2018-07-30T17:38:12.553Z,33.96
2018-07-30T17:40:43.477Z,33.92
2018-07-30T17:43:14.509Z,33.95
2018-07-30T17:45:45.557Z,33.87
2018-07-30T17:48:16.555Z,33.63
2018-07-30T17:50:47.476Z,33.68
2018-07-30T17:53:18.508Z,33.46
2018-07-30T17:55:49.526Z,33.56
2018-07-30T17:58:20.511Z,33.46
2018-07-30T18:00:52.273Z,33.35
2018-07-30T18:03:23.381Z,33.35
2018-07-30T18:05:54.505Z,33.27
2018-07-30T18:08:25.468Z,33.13
2018-07-30T18:10:56.582Z,32.94
2018-07-30T18:13:27.602Z,33.07
2018-07-30T18:15:58.526Z,32.95
2018-07-30T18:18:29.481Z,33.02
2018-07-30T18:21:00.513Z,32.92
2018-07-30T18:23:31.521Z,32.88
2018-07-30T18:26:02.521Z,32.65
2018-07-30T18:28:33.471Z,32.79
2018-07-30T18:31:04.451Z,32.69
2018-07-30T18:33:35.634Z,32.58
2018-07-30T18:36:06.488Z,32.53
2018-07-30T18:38:37.470Z,32.59
2018-07-30T18:41:08.850Z,32.59
2018-07-30T18:43:39.295Z,32.61
2018-07-30T18:46:17.218Z,32.51
2018-07-30T18:48:48.369Z,32.51
2018-07-30T18:51:19.412Z,32.45
2018-07-30T18:53:50.497Z,32.40
2018-07-30T18:56:21.488Z,32.37
2018-07-30T18:58:52.477Z,32.35
2018-07-30T19:01:23.440Z,32.31
2018-07-30T19:03:54.497Z,32.20
2018-07-30T19:06:25.482Z,32.18
2018-07-30T19:08:56.462Z,32.06
2018-07-30T19:11:27.452Z,32.03
2018-07-30T19:13:58.561Z,31.92
2018-07-30T19:16:29.519Z,31.86
2018-07-30T19:19:00.517Z,31.82
2018-07-30T19:21:31.508Z,31.72
2018-07-30T19:24:02.628Z,31.66
2018-07-30T19:26:33.522Z,31.56
2018-07-30T19:29:04.462Z,31.52
2018-07-30T19:31:35.456Z,31.36
2018-07-30T19:34:07.028Z,31.23
2018-07-30T19:36:38.236Z,31.18
2018-07-30T19:39:12.850Z,31.20
2018-07-30T19:41:43.624Z,31.10
2018-07-30T19:44:14.565Z,31.05
2018-07-30T19:46:45.498Z,30.98
2018-07-30T19:49:16.474Z,30.88
2018-07-30T19:51:47.595Z,30.86
2018-07-30T19:54:18.494Z,30.84
2018-07-30T19:56:49.502Z,30.71
2018-07-30T19:59:20.489Z,30.76
2018-07-30T20:01:51.661Z,30.72
2018-07-30T20:04:22.581Z,30.66
2018-07-30T20:06:53.507Z,30.65
2018-07-30T20:09:24.516Z,30.55
2018-07-30T20:11:55.523Z,30.52
2018-07-30T20:14:26.493Z,30.47
2018-07-30T20:16:57.512Z,30.39
2018-07-30T20:19:28.513Z,30.36
2018-07-30T20:21:59.485Z,30.27
2018-07-30T20:24:30.555Z,30.24
2018-07-30T20:27:01.529Z,30.18
2018-07-30T20:29:32.506Z,30.07
2018-07-30T20:32:03.507Z,30.08
2018-07-30T20:34:34.505Z,30.05
2018-07-30T20:37:05.518Z,29.97
2018-07-30T20:39:36.552Z,29.99
2018-07-30T20:42:08.381Z,29.90
2018-07-30T20:44:39.552Z,29.80
2018-07-30T20:47:10.565Z,29.78
2018-07-30T20:49:41.536Z,29.80
2018-07-30T20:52:12.533Z,29.75
2018-07-30T20:54:43.503Z,29.68
2018-07-30T20:57:14.500Z,29.66
2018-07-30T20:59:45.638Z,29.64
2018-07-30T21:02:16.539Z,29.63
2018-07-30T21:04:47.564Z,29.59
2018-07-30T21:07:18.565Z,29.56
2018-07-30T21:09:49.537Z,29.50
2018-07-30T21:12:20.500Z,29.47
2018-07-30T21:14:51.582Z,29.40
2018-07-30T21:17:22.591Z,29.39
2018-07-30T21:19:53.614Z,29.35
2018-07-30T21:22:24.592Z,29.22
2018-07-30T21:24:55.606Z,29.16
2018-07-30T21:27:27.561Z,29.10
2018-07-30T21:29:59.837Z,29.04
2018-07-30T21:32:30.555Z,28.99
2018-07-30T21:35:01.538Z,28.82
2018-07-30T21:37:32.502Z,28.68
2018-07-30T21:40:03.521Z,28.69
2018-07-30T21:42:34.518Z,28.75
2018-07-30T21:45:05.512Z,28.62
2018-07-30T21:47:36.662Z,28.65
2018-07-30T21:50:08.204Z,28.58
2018-07-30T21:52:39.378Z,28.53
2018-07-30T21:55:10.501Z,28.44
2018-07-30T21:57:42.488Z,28.44
2018-07-30T22:00:22.387Z,28.30
2018-07-30T22:02:55.403Z,28.35
2018-07-30T22:05:26.659Z,28.35
2018-07-30T22:07:57.561Z,27.93
2018-07-30T22:10:28.536Z,27.93
2018-07-30T22:12:59.526Z,27.93
2018-07-30T22:15:30.487Z,27.91
2018-07-30T22:18:01.483Z,27.81
2018-07-30T22:20:32.483Z,27.99
2018-07-30T22:23:03.532Z,27.93
2018-07-30T22:25:34.517Z,27.84
2018-07-30T22:28:05.687Z,27.82
2018-07-30T22:30:36.702Z,27.82
2018-07-30T22:33:07.553Z,27.69
2018-07-30T22:35:38.505Z,27.56
2018-07-30T22:38:09.545Z,27.45
2018-07-30T22:40:40.506Z,27.47
2018-07-30T22:43:12.009Z,27.46
2018-07-30T22:45:43.263Z,27.46
2018-07-30T22:48:14.458Z,27.49
2018-07-30T22:50:45.487Z,27.44
2018-07-30T22:56:02.514Z,27.36
2018-07-30T22:58:33.474Z,27.29
2018-07-30T23:01:04.522Z,27.25
2018-07-30T23:03:35.469Z,27.19
2018-07-30T23:06:08.245Z,27.05
2018-07-30T23:08:39.401Z,26.97
2018-07-30T23:11:10.490Z,27.06
2018-07-30T23:13:41.486Z,26.99
2018-07-30T23:16:12.546Z,26.95
2018-07-30T23:18:43.538Z,26.87
2018-07-30T23:21:14.525Z,26.75
2018-07-30T23:23:45.488Z,26.57
2018-07-30T23:26:16.477Z,26.60
2018-07-30T23:28:47.446Z,26.57
2018-07-30T23:31:18.471Z,26.53
2018-07-30T23:33:49.468Z,26.41
2018-07-30T23:36:20.489Z,26.60
2018-07-30T23:38:51.493Z,26.60
2018-07-30T23:41:22.485Z,26.63
2018-07-30T23:43:53.466Z,26.48
2018-07-30T23:46:24.568Z,26.43
2018-07-30T23:48:55.732Z,26.41
2018-07-30T23:51:26.607Z,26.26
2018-07-30T23:53:57.624Z,26.16
2018-07-30T23:56:28.692Z,26.09
2018-07-30T23:59:01.042Z,26.06
